sensor_id;sensor_type;location;lat;lon;timestamp;pressure;altitude;pressure_sealevel;temperature;humidity
63901;BME280;50538;53.482;10.294;2024-03-08T00:02:41;101963.31;;;1.59;100.00
63901;BME280;50538;53.482;10.294;2024-03-08T00:12:51;101949.69;;;1.52;100.00
63901;BME280;50538;53.482;10.294;2024-03-08T00:23:05;101949.25;;;1.44;100.00
63901;BME280;50538;53.482;10.294;2024-03-08T00:33:09;101946.09;;;1.38;100.00
63901;BME280;50538;53.482;10.294;2024-03-08T00:43:18;101944.78;;;1.29;100.00
63901;BME280;50538;53.482;10.294;2024-03-08T00:53:48;101939.94;;;1.21;100.00
63901;BME280;50538;53.482;10.294;2024-03-08T01:04:06;101936.94;;;1.12;100.00
63901;BME280;50538;53.482;10.294;2024-03-08T01:14:21;101919.00;;;1.04;100.00
63901;BME280;50538;53.482;10.294;2024-03-08T01:24:39;101914.06;;;0.98;100.00
63901;BME280;50538;53.482;10.294;2024-03-08T01:34:43;101885.69;;;0.90;100.00
63901;BME280;50538;53.482;10.294;2024-03-08T01:44:46;101866.84;;;0.84;100.00
63901;BME280;50538;53.482;10.294;2024-03-08T01:54:53;101856.75;;;0.76;100.00
63901;BME280;50538;53.482;10.294;2024-03-08T02:05:20;101850.16;;;0.69;100.00
63901;BME280;50538;53.482;10.294;2024-03-08T02:15:24;101843.41;;;0.65;100.00
63901;BME280;50538;53.482;10.294;2024-03-08T02:25:27;101832.38;;;0.58;100.00
63901;BME280;50538;53.482;10.294;2024-03-08T02:35:31;101841.38;;;0.53;100.00
63901;BME280;50538;53.482;10.294;2024-03-08T02:45:45;101841.66;;;0.47;100.00
63901;BME280;50538;53.482;10.294;2024-03-08T02:55:50;101829.75;;;0.41;100.00
63901;BME280;50538;53.482;10.294;2024-03-08T03:05:53;101826.66;;;0.33;100.00
63901;BME280;50538;53.482;10.294;2024-03-08T03:16:04;101813.97;;;0.25;100.00
63901;BME280;50538;53.482;10.294;2024-03-08T03:26:14;101818.63;;;0.19;100.00
63901;BME280;50538;53.482;10.294;2024-03-08T03:36:18;101808.47;;;0.13;100.00
63901;BME280;50538;53.482;10.294;2024-03-08T03:46:20;101813.88;;;0.10;100.00
63901;BME280;50538;53.482;10.294;2024-03-08T03:56:27;101811.47;;;0.05;100.00
63901;BME280;50538;53.482;10.294;2024-03-08T04:06:36;101820.34;;;0.01;100.00
63901;BME280;50538;53.482;10.294;2024-03-08T04:16:50;101812.81;;;-0.05;100.00
63901;BME280;50538;53.482;10.294;2024-03-08T11:43:04;101483.91;;;7.64;70.77
63901;BME280;50538;53.482;10.294;2024-03-08T11:53:53;101468.63;;;7.67;70.87
63901;BME280;50538;53.482;10.294;2024-03-08T12:48:49;101384.44;;;8.33;64.92
63901;BME280;50538;53.482;10.294;2024-03-08T12:59:18;101344.19;;;8.40;62.06
63901;BME280;50538;53.482;10.294;2024-03-08T13:09:23;101347.03;;;8.57;66.30
63901;BME280;50538;53.482;10.294;2024-03-08T13:20:10;101331.28;;;8.75;60.91
63901;BME280;50538;53.482;10.294;2024-03-08T13:30:24;101319.13;;;9.02;60.31
63901;BME280;50538;53.482;10.294;2024-03-08T13:40:31;101298.66;;;9.13;58.59
63901;BME280;50538;53.482;10.294;2024-03-08T13:50:44;101280.50;;;9.28;58.22
63901;BME280;50538;53.482;10.294;2024-03-08T14:00:55;101262.50;;;9.32;59.25
63901;BME280;50538;53.482;10.294;2024-03-08T14:37:08;101203.94;;;9.25;53.04
63901;BME280;50538;53.482;10.294;2024-03-08T14:47:46;101193.59;;;9.32;57.72
63901;BME280;50538;53.482;10.294;2024-03-08T14:58:23;101178.66;;;9.30;53.39
63901;BME280;50538;53.482;10.294;2024-03-08T15:09:01;101183.03;;;9.22;51.99
63901;BME280;50538;53.482;10.294;2024-03-08T15:19:37;101163.00;;;9.10;54.13
63901;BME280;50538;53.482;10.294;2024-03-08T15:29:39;101155.75;;;9.02;58.03
63901;BME280;50538;53.482;10.294;2024-03-08T15:50:31;101133.78;;;8.82;55.81
63901;BME280;50538;53.482;10.294;2024-03-08T16:01:07;101125.50;;;8.68;55.04
63901;BME280;50538;53.482;10.294;2024-03-08T16:21:53;101111.78;;;8.25;58.56
63901;BME280;50538;53.482;10.294;2024-03-08T16:32:10;101096.66;;;7.98;57.57
63901;BME280;50538;53.482;10.294;2024-03-08T16:42:21;101091.63;;;7.76;56.84
63901;BME280;50538;53.482;10.294;2024-03-08T16:52:42;101077.03;;;7.53;58.26
63901;BME280;50538;53.482;10.294;2024-03-08T17:03:03;101074.91;;;7.27;60.90
63901;BME280;50538;53.482;10.294;2024-03-08T17:13:09;101074.47;;;7.03;68.06
63901;BME280;50538;53.482;10.294;2024-03-08T17:23:20;101058.50;;;6.74;75.53
63901;BME280;50538;53.482;10.294;2024-03-08T17:44:10;101054.91;;;6.24;81.91
63901;BME280;50538;53.482;10.294;2024-03-08T17:54:49;101051.69;;;5.99;81.48
63901;BME280;50538;53.482;10.294;2024-03-08T18:05:02;101041.88;;;5.81;84.93
63901;BME280;50538;53.482;10.294;2024-03-08T18:15:09;101041.47;;;5.64;82.15
63901;BME280;50538;53.482;10.294;2024-03-08T18:25:15;101037.34;;;5.51;83.93
63901;BME280;50538;53.482;10.294;2024-03-08T19:09:19;101010.94;;;4.98;84.01
63901;BME280;50538;53.482;10.294;2024-03-08T20:16:00;101010.88;;;4.32;86.69
63901;BME280;50538;53.482;10.294;2024-03-08T20:37:09;101003.13;;;4.09;88.46
63901;BME280;50538;53.482;10.294;2024-03-08T20:48:01;100995.22;;;3.97;91.91
63901;BME280;50538;53.482;10.294;2024-03-08T20:58:23;100984.69;;;3.86;92.53
63901;BME280;50538;53.482;10.294;2024-03-08T21:08:54;100968.66;;;3.78;90.72
63901;BME280;50538;53.482;10.294;2024-03-08T21:19:23;100952.91;;;3.78;89.45
63901;BME280;50538;53.482;10.294;2024-03-08T21:29:43;100936.31;;;3.78;87.04
